ΕΜΥ, Εθνική Μετεωρολογική Υπηρεσία - Δελτία Καιρού, Προγνώσεις

ΑΕΡΟΝΑΥΤΙΛΙΑ

GREEK AIRPORTS CODES

LGAV 091650Z 35009KT 9999 FEW025 31/11 Q1010 RMK NOSIG=

EUROPEAN AIRPORTS CODES

TAF LGAV 091700Z 0918/1018 35015KT 9999 FEW025 BECMG 1006/1008 01020KT BECMG 1009/1011 02016G26KT=